Terminal Aerodrome Forecast
Issued by NWS

Home | Current Version | Previous Version | Text Only | Print | Product List | Glossary On
Versions: 1 2 3 4 5 6 7 8 9 10 11 12 13 14 15 16 17 18
000
FTUS46 KLOX 281300 AAA
TAFLGB
TAF AMD
KLGB 281305Z 2813/2912 VRB03KT P6SM VCTS BKN080CB
     FM281600 20006KT P6SM VCSH BKN100
     FM282200 29008KT P6SM BKN150
     FM290500 VRB03KT P6SM SCT150
     FM291100 VRB03KT 4SM BR OVC015=

USA.gov is the U.S. government's official web portal to all federal, state and local government web resources and services.